createdAt,value
2019-04-16T00:00:00.996Z,0.2
2019-04-16T00:00:13.808Z,0.2
2019-04-16T00:00:25.713Z,0.2
2019-04-16T00:00:37.618Z,0.2
2019-04-16T00:00:49.478Z,0.2
2019-04-16T00:01:01.313Z,0.3
2019-04-16T00:01:13.905Z,0.5
2019-04-16T00:01:25.042Z,0.5
2019-04-16T00:01:36.909Z,0.2
2019-04-16T00:01:49.732Z,0.2
2019-04-16T00:02:01.612Z,0.2
2019-04-16T00:02:13.415Z,0.3
2019-04-16T00:02:25.309Z,0.3
2019-04-16T00:02:37.232Z,0.3
2019-04-16T00:02:51.167Z,0.2
2019-04-16T00:03:00.871Z,0.3
2019-04-16T00:03:12.766Z,0.2
2019-04-16T00:03:25.606Z,0.2
2019-04-16T00:03:37.481Z,0.8
2019-04-16T00:03:53.620Z,0.8
2019-04-16T00:04:01.196Z,0.2
2019-04-16T00:04:13.083Z,0.1
2019-04-16T00:04:25.588Z,0.2
2019-04-16T00:04:36.801Z,0.3
2019-04-16T00:04:48.639Z,0.4
2019-04-16T00:05:01.694Z,0.3
2019-04-16T00:05:13.288Z,0.2
2019-04-16T00:05:27.685Z,0.2
2019-04-16T00:05:37.102Z,0.2
2019-04-16T00:05:48.942Z,0.2
2019-04-16T00:06:01.835Z,0.3
2019-04-16T00:06:13.669Z,0.3
2019-04-16T00:06:25.556Z,0.2
2019-04-16T00:06:37.433Z,0.2
2019-04-16T00:06:49.263Z,0.2
2019-04-16T00:07:01.155Z,0.2
2019-04-16T00:07:13.051Z,0.2
2019-04-16T00:07:24.895Z,0.2
2019-04-16T00:07:36.730Z,0.2
2019-04-16T00:07:48.565Z,0.1
2019-04-16T00:08:00.496Z,0.2
2019-04-16T00:08:26.929Z,0.2
2019-04-16T00:08:27.995Z,0.1
2019-04-16T00:08:38.008Z,0.1
2019-04-16T00:08:49.917Z,0.1
2019-04-16T00:09:02.808Z,0.1
2019-04-16T00:09:14.676Z,0.2
2019-04-16T00:09:26.516Z,0.2
2019-04-16T00:09:38.490Z,0.2
2019-04-16T00:09:50.420Z,0.2
2019-04-16T00:10:02.251Z,0.3
2019-04-16T00:10:14.092Z,0.3
2019-04-16T00:10:25.998Z,0.3
2019-04-16T00:10:37.921Z,0.3
2019-04-16T00:10:49.783Z,0.2
2019-04-16T00:11:01.707Z,0.2
2019-04-16T00:11:13.593Z,0.5
2019-04-16T00:11:25.502Z,0.5
2019-04-16T00:11:37.335Z,0.2
2019-04-16T00:11:49.235Z,0.6
2019-04-16T00:12:01.052Z,3
2019-04-16T00:12:12.936Z,3
2019-04-16T00:12:24.770Z,0.2
2019-04-16T00:12:36.627Z,0.3
2019-04-16T00:12:48.528Z,0.3
2019-04-16T00:13:00.412Z,0.2
2019-04-16T00:13:12.247Z,0.2
2019-04-16T00:13:24.159Z,0.2
2019-04-16T00:13:36.073Z,0.2
2019-04-16T00:13:47.904Z,0.2
2019-04-16T00:14:02.944Z,0.2
2019-04-16T00:14:11.654Z,0.2
2019-04-16T00:14:23.497Z,0.1
2019-04-16T00:14:35.397Z,0.2
2019-04-16T00:14:47.258Z,0.2
2019-04-16T00:14:59.155Z,0.2
2019-04-16T00:15:11.122Z,0.1
2019-04-16T00:15:22.937Z,0.1
2019-04-16T00:15:34.765Z,0.2
2019-04-16T00:15:46.668Z,1.8
2019-04-16T00:15:58.581Z,1.8
2019-04-16T00:16:12.930Z,0.1
2019-04-16T00:16:22.370Z,0.2
2019-04-16T00:16:34.213Z,0.2
2019-04-16T00:16:47.124Z,0.1
2019-04-16T00:16:59.050Z,0.1
2019-04-16T00:17:13.136Z,0.1
2019-04-16T00:17:22.705Z,0.1
2019-04-16T00:17:34.535Z,0.2
2019-04-16T00:17:47.237Z,0.2
2019-04-16T00:17:58.312Z,0.1
2019-04-16T00:18:10.143Z,0.2
2019-04-16T00:18:23.040Z,0.2
2019-04-16T00:18:34.868Z,0.3
2019-04-16T00:18:56.971Z,0.3
2019-04-16T00:19:04.124Z,0.2
2019-04-16T00:19:11.509Z,0.2
2019-04-16T00:19:23.350Z,0.4
2019-04-16T00:19:35.476Z,0.4
2019-04-16T00:19:47.127Z,0.2
2019-04-16T00:19:58.965Z,0.2
2019-04-16T00:20:11.816Z,0.1
2019-04-16T00:20:23.682Z,0.1
2019-04-16T00:20:37.896Z,0.1
2019-04-16T00:20:47.403Z,0.1
2019-04-16T00:20:59.320Z,0.1
2019-04-16T00:21:12.231Z,0.2
2019-04-16T00:21:24.103Z,0.2
2019-04-16T00:21:38.375Z,0.2
2019-04-16T00:21:48.888Z,0.2
2019-04-16T00:22:00.732Z,0.2
2019-04-16T00:22:13.551Z,0.4
2019-04-16T00:22:25.410Z,0.3
2019-04-16T00:22:37.261Z,0.2
2019-04-16T00:22:49.172Z,0.3
2019-04-16T00:23:01.069Z,0.4
2019-04-16T00:23:12.901Z,0.2
2019-04-16T00:23:24.729Z,0.2
2019-04-16T00:23:36.746Z,0.2
2019-04-16T00:23:48.571Z,0.2
2019-04-16T00:24:00.526Z,0.2
2019-04-16T00:24:12.255Z,0.1
2019-04-16T00:24:24.331Z,0.3
2019-04-16T00:24:36.214Z,0.4
2019-04-16T00:24:48.052Z,0.4
2019-04-16T00:24:59.868Z,0.2
2019-04-16T00:25:11.777Z,0.1
2019-04-16T00:25:23.624Z,0.1
2019-04-16T00:25:35.448Z,1.9
2019-04-16T00:25:47.331Z,1.9
2019-04-16T00:26:00.149Z,1.9
2019-04-16T00:26:12.106Z,0.2
2019-04-16T00:26:26.431Z,0.2
2019-04-16T00:26:35.748Z,0.2
2019-04-16T00:26:47.663Z,0.2
2019-04-16T00:27:00.538Z,0.2
2019-04-16T00:27:12.412Z,0.1
2019-04-16T00:27:28.175Z,0.1
2019-04-16T00:27:36.133Z,0.3
2019-04-16T00:27:47.986Z,0.3
2019-04-16T00:28:00.751Z,0.2
2019-04-16T00:28:11.751Z,0.1
2019-04-16T00:28:23.583Z,0.7
2019-04-16T00:28:36.392Z,0.7
2019-04-16T00:28:48.255Z,0.2
2019-04-16T00:29:02.014Z,0.2
2019-04-16T00:29:12.057Z,0.2
2019-04-16T00:29:23.900Z,0.2
2019-04-16T00:29:39.467Z,0.2
2019-04-16T00:29:48.723Z,0.2
2019-04-16T00:30:03.824Z,0.3
2019-04-16T00:30:12.532Z,0.2
2019-04-16T00:30:24.378Z,0.2
2019-04-16T00:30:37.190Z,0.1
2019-04-16T00:30:49.028Z,0.2
2019-04-16T00:31:01.020Z,0.2
2019-04-16T00:31:12.756Z,0.2
2019-04-16T00:31:24.600Z,0.4
2019-04-16T00:31:37.764Z,0.4
2019-04-16T00:31:49.249Z,0.4
2019-04-16T00:32:01.087Z,0.2
2019-04-16T00:32:13.898Z,0.1
2019-04-16T00:32:26.086Z,0.1
2019-04-16T00:32:38.766Z,0.1
2019-04-16T00:32:49.422Z,0.1
2019-04-16T00:33:01.297Z,0.1
2019-04-16T00:33:14.177Z,0.1
2019-04-16T00:33:26.020Z,0.1
2019-04-16T00:33:39.303Z,0.1
2019-04-16T00:33:49.859Z,0.9
2019-04-16T00:34:01.874Z,1
2019-04-16T00:34:14.396Z,1
2019-04-16T00:34:26.395Z,0.3
2019-04-16T00:34:38.332Z,0.2
2019-04-16T00:34:50.231Z,0.2
2019-04-16T00:35:02.179Z,0.3
2019-04-16T00:35:15.642Z,0.2
2019-04-16T00:35:25.913Z,0.2
2019-04-16T00:35:37.901Z,0.3
2019-04-16T00:35:50.793Z,1.8
2019-04-16T00:36:02.704Z,1.8
2019-04-16T00:36:15.302Z,1.7
2019-04-16T00:36:26.365Z,0.2
2019-04-16T00:36:38.320Z,0.2
2019-04-16T00:36:51.148Z,0.3
2019-04-16T00:37:03.255Z,0.3
2019-04-16T00:37:14.915Z,0.2
2019-04-16T00:37:26.739Z,0.2
2019-04-16T00:37:38.694Z,0.3
2019-04-16T00:37:51.632Z,0.2
2019-04-16T00:38:02.397Z,0.3
2019-04-16T00:38:14.302Z,0.2
2019-04-16T00:38:39.651Z,0.2
2019-04-16T00:38:41.108Z,0.2
2019-04-16T00:38:54.099Z,0.2
2019-04-16T00:39:03.606Z,0.1
2019-04-16T00:39:15.480Z,0.1
2019-04-16T00:39:28.364Z,0.2
2019-04-16T00:39:40.207Z,0.3
2019-04-16T00:39:55.492Z,0.2
2019-04-16T00:40:03.952Z,0.2
2019-04-16T00:40:15.808Z,0.2
2019-04-16T00:40:28.656Z,0.2
2019-04-16T00:40:40.588Z,0.2
2019-04-16T00:40:52.411Z,0.2
2019-04-16T00:41:05.215Z,0.2
2019-04-16T00:41:18.037Z,0.2
2019-04-16T00:41:29.866Z,0.2
2019-04-16T00:41:41.707Z,0.2
2019-04-16T00:41:53.683Z,0.2
2019-04-16T00:42:05.741Z,0.3
2019-04-16T00:42:17.477Z,0.4
2019-04-16T00:42:29.312Z,0.3
2019-04-16T00:42:41.219Z,0.2
2019-04-16T00:42:53.095Z,0.2
2019-04-16T00:43:04.920Z,0.2
2019-04-16T00:43:16.755Z,0.2
2019-04-16T00:43:28.779Z,0.2
2019-04-16T00:43:41.515Z,0.2
2019-04-16T00:43:52.434Z,0.2
2019-04-16T00:44:04.462Z,0.4
2019-04-16T00:44:16.366Z,0.3
2019-04-16T00:44:28.241Z,0.3
2019-04-16T00:44:40.088Z,0.2
2019-04-16T00:44:51.986Z,0.3
2019-04-16T00:45:03.901Z,0.3
2019-04-16T00:45:15.732Z,0.3
2019-04-16T00:45:27.562Z,0.2
2019-04-16T00:45:39.480Z,0.2
2019-04-16T00:45:51.339Z,0.1
2019-04-16T00:46:03.270Z,0.1
2019-04-16T00:46:16.162Z,0.1
2019-04-16T00:46:28.054Z,0.1
2019-04-16T00:46:39.852Z,0.2
2019-04-16T00:46:51.768Z,0.2
2019-04-16T00:47:03.712Z,0.2
2019-04-16T00:47:15.546Z,0.2
2019-04-16T00:47:27.372Z,0.2
2019-04-16T00:47:39.262Z,0.2
2019-04-16T00:47:52.153Z,0.2
2019-04-16T00:48:04.033Z,0.2
2019-04-16T00:48:15.862Z,0.3
2019-04-16T00:48:27.682Z,0.3
2019-04-16T00:48:39.564Z,0.3
2019-04-16T00:48:51.487Z,0.2
2019-04-16T00:49:03.384Z,0.1
2019-04-16T00:49:15.221Z,0.1
2019-04-16T00:49:28.032Z,0.1
2019-04-16T00:49:40.894Z,0.2
2019-04-16T00:49:57.369Z,0.4
2019-04-16T00:50:04.551Z,0.4
2019-04-16T00:50:16.457Z,0.3
2019-04-16T00:50:28.290Z,0.3
2019-04-16T00:50:40.118Z,0.3
2019-04-16T00:50:52.052Z,0.2
2019-04-16T00:51:04.019Z,0.2
2019-04-16T00:51:15.787Z,0.2
2019-04-16T00:51:27.632Z,0.2
2019-04-16T00:51:39.555Z,0.1
2019-04-16T00:51:51.410Z,0.1
2019-04-16T00:52:06.643Z,0.2
2019-04-16T00:52:15.183Z,0.2
2019-04-16T00:52:27.118Z,0.2
2019-04-16T00:52:40.024Z,0.2
2019-04-16T00:52:51.912Z,0.2
2019-04-16T00:53:07.567Z,0.2
2019-04-16T00:53:15.643Z,0.3
2019-04-16T00:53:27.544Z,0.3
2019-04-16T00:53:40.418Z,0.4
2019-04-16T00:53:52.376Z,0.2
2019-04-16T00:54:04.293Z,0.2
2019-04-16T00:54:16.106Z,0.1
2019-04-16T00:54:27.983Z,0.2
2019-04-16T00:54:42.334Z,0.2
2019-04-16T00:54:51.741Z,0.2
2019-04-16T00:55:03.573Z,0.1
2019-04-16T00:55:16.443Z,0.1
2019-04-16T00:55:28.283Z,0.1
2019-04-16T00:55:42.273Z,0.1
2019-04-16T00:55:52.152Z,0.1
2019-04-16T00:56:04.065Z,0.2
2019-04-16T00:56:16.802Z,0.2
2019-04-16T00:56:27.703Z,0.1
2019-04-16T00:56:39.607Z,0.2
2019-04-16T00:56:52.418Z,0.2
2019-04-16T00:57:04.491Z,0.2
2019-04-16T00:57:17.942Z,0.2
2019-04-16T00:57:28.091Z,0.2
2019-04-16T00:57:39.986Z,0.2
2019-04-16T00:57:52.835Z,0.3
2019-04-16T00:58:04.795Z,0.3
2019-04-16T00:58:19.433Z,0.2
2019-04-16T00:58:28.449Z,0.1
2019-04-16T00:58:40.305Z,0.1
2019-04-16T00:58:53.135Z,0.1
2019-04-16T00:59:05.107Z,0.3
2019-04-16T00:59:16.941Z,0.4
2019-04-16T00:59:29.740Z,0.4
2019-04-16T00:59:41.573Z,0.3
2019-04-16T00:59:56.025Z,0.3
2019-04-16T01:00:05.273Z,0.3
2019-04-16T01:00:17.114Z,0.1
2019-04-16T01:00:30.557Z,0.1
2019-04-16T01:00:40.940Z,0.1
2019-04-16T01:00:52.875Z,0.1
2019-04-16T01:01:04.742Z,0.1
2019-04-16T01:01:16.611Z,0.2
2019-04-16T01:01:28.513Z,0.2
2019-04-16T01:01:40.451Z,0.2
2019-04-16T01:01:52.283Z,0.2
2019-04-16T01:02:04.120Z,0.1
2019-04-16T01:02:16.100Z,0.2
2019-04-16T01:02:27.996Z,0.2
2019-04-16T01:02:39.904Z,0.2
2019-04-16T01:02:51.721Z,0.1
2019-04-16T01:03:03.625Z,0.2
2019-04-16T01:03:15.531Z,0.2
2019-04-16T01:03:27.379Z,0.2
2019-04-16T01:03:39.216Z,0.3
2019-04-16T01:03:51.140Z,0.3
2019-04-16T01:04:03.439Z,0.3
2019-04-16T01:04:14.956Z,0.2
2019-04-16T01:04:26.790Z,0.2
2019-04-16T01:04:38.624Z,0.1
2019-04-16T01:04:50.566Z,0.2
2019-04-16T01:05:02.401Z,0.2
2019-04-16T01:05:14.232Z,0.2
2019-04-16T01:05:26.170Z,0.2
2019-04-16T01:05:38.980Z,0.2
2019-04-16T01:05:50.893Z,0.2
2019-04-16T01:06:06.716Z,0.2
2019-04-16T01:06:14.579Z,0.2
2019-04-16T01:06:26.417Z,0.2
2019-04-16T01:06:40.613Z,0.2
2019-04-16T01:06:50.248Z,0.1
2019-04-16T01:07:02.157Z,0.1
2019-04-16T01:07:13.918Z,0.1
2019-04-16T01:07:25.873Z,0.2
2019-04-16T01:07:37.735Z,0.2
2019-04-16T01:07:49.625Z,0.1
2019-04-16T01:08:01.532Z,0.3
2019-04-16T01:08:13.413Z,0.3
2019-04-16T01:08:25.324Z,0.3
2019-04-16T01:08:37.182Z,0.4
2019-04-16T01:08:54.676Z,0.4
2019-04-16T01:09:01.819Z,0.4
2019-04-16T01:09:13.748Z,0.3
2019-04-16T01:09:25.628Z,0.3
2019-04-16T01:09:37.464Z,0.2
2019-04-16T01:09:49.296Z,0.2
2019-04-16T01:10:01.232Z,0.2
2019-04-16T01:10:13.092Z,0.2
2019-04-16T01:10:24.931Z,0.1
2019-04-16T01:10:36.779Z,0.1
2019-04-16T01:10:48.666Z,0.1
2019-04-16T01:11:00.608Z,0.1
2019-04-16T01:11:12.450Z,0.2
2019-04-16T01:11:24.363Z,0.2
2019-04-16T01:11:36.269Z,0.1
2019-04-16T01:11:48.831Z,0.3
2019-04-16T01:11:59.926Z,0.3
2019-04-16T01:12:11.840Z,0.4
2019-04-16T01:12:23.676Z,0.2
2019-04-16T01:12:35.583Z,0.2
2019-04-16T01:12:47.475Z,0.3
2019-04-16T01:12:59.311Z,0.2
2019-04-16T01:13:11.202Z,0.2
2019-04-16T01:13:24.449Z,0.2
2019-04-16T01:13:34.859Z,0.2
2019-04-16T01:13:46.712Z,0.2
2019-04-16T01:13:59.517Z,0.2
2019-04-16T01:14:11.500Z,0.1
2019-04-16T01:14:24.175Z,0.3
2019-04-16T01:14:35.152Z,0.3
2019-04-16T01:14:47.007Z,0.2
2019-04-16T01:15:00.724Z,0.2
2019-04-16T01:15:10.760Z,0.2
2019-04-16T01:15:22.599Z,0.2
2019-04-16T01:15:35.406Z,0.2
2019-04-16T01:15:47.283Z,0.2
2019-04-16T01:16:02.420Z,0.1
2019-04-16T01:16:11.093Z,0.2
2019-04-16T01:16:23.983Z,0.2
2019-04-16T01:16:36.860Z,0.2
2019-04-16T01:16:48.692Z,0.2
2019-04-16T01:17:03.804Z,0.2
2019-04-16T01:17:12.452Z,0.2
2019-04-16T01:17:24.357Z,0.1
2019-04-16T01:17:37.178Z,0.1
2019-04-16T01:17:49.125Z,0.2
2019-04-16T01:18:01.030Z,0.2
2019-04-16T01:18:13.899Z,0.4
2019-04-16T01:18:25.732Z,0.4
2019-04-16T01:18:38.682Z,0.2
2019-04-16T01:18:49.454Z,0.4
2019-04-16T01:19:01.343Z,0.3
2019-04-16T01:19:14.237Z,0.3
2019-04-16T01:19:26.133Z,0.1
2019-04-16T01:19:38.246Z,0.1
2019-04-16T01:19:49.845Z,0.2
2019-04-16T01:20:01.719Z,0.2
2019-04-16T01:20:14.609Z,0.2
2019-04-16T01:20:26.531Z,0.2
2019-04-16T01:20:40.354Z,0.2
2019-04-16T01:20:50.154Z,0.2
2019-04-16T01:21:02.399Z,0.2
2019-04-16T01:21:14.865Z,0.2
2019-04-16T01:21:25.797Z,0.2
2019-04-16T01:21:37.678Z,0.2
2019-04-16T01:21:50.499Z,0.2
2019-04-16T01:22:02.411Z,0.1
2019-04-16T01:22:15.975Z,0.2
2019-04-16T01:22:26.310Z,0.2
2019-04-16T01:22:38.221Z,0.1
2019-04-16T01:22:51.044Z,0.2
2019-04-16T01:23:03.011Z,0.2
2019-04-16T01:23:17.472Z,0.2
2019-04-16T01:23:26.839Z,0.3
2019-04-16T01:23:38.661Z,0.3
2019-04-16T01:23:51.534Z,0.3
2019-04-16T01:24:03.407Z,0.3
2019-04-16T01:24:17.466Z,0.3
2019-04-16T01:24:27.159Z,0.2
2019-04-16T01:24:38.999Z,0.3
2019-04-16T01:24:52.462Z,0.2
2019-04-16T01:25:02.668Z,0.3
2019-04-16T01:25:14.590Z,0.2
2019-04-16T01:25:27.449Z,0.2
2019-04-16T01:25:39.291Z,0.2
2019-04-16T01:25:55.293Z,0.2
2019-04-16T01:26:03.022Z,0.2
2019-04-16T01:26:14.896Z,0.2
2019-04-16T01:26:27.566Z,0.1
2019-04-16T01:26:38.610Z,0.1
2019-04-16T01:26:50.445Z,0.2
2019-04-16T01:27:03.494Z,0.2
2019-04-16T01:27:15.286Z,0.4
2019-04-16T01:27:28.682Z,0.4
2019-04-16T01:27:38.980Z,0.3
2019-04-16T01:27:50.802Z,0.2
2019-04-16T01:28:03.651Z,0.1
2019-04-16T01:28:15.544Z,0.2
2019-04-16T01:28:29.338Z,0.1
2019-04-16T01:28:39.246Z,0.1
2019-04-16T01:28:51.077Z,0.1
2019-04-16T01:29:04.065Z,0.2
2019-04-16T01:29:14.889Z,0.2
2019-04-16T01:29:26.717Z,0.2
2019-04-16T01:29:39.565Z,0.2
2019-04-16T01:29:51.395Z,0.1
2019-04-16T01:30:05.905Z,0.2
2019-04-16T01:30:15.179Z,0.2
2019-04-16T01:30:27.031Z,0.2
2019-04-16T01:30:39.846Z,0.2
2019-04-16T01:30:51.679Z,0.2
2019-04-16T01:31:06.877Z,0.3
2019-04-16T01:31:15.421Z,0.2
2019-04-16T01:31:27.304Z,0.2
2019-04-16T01:31:40.155Z,0.3
2019-04-16T01:31:51.977Z,0.3
2019-04-16T01:32:04.022Z,0.4
2019-04-16T01:32:16.725Z,0.2
2019-04-16T01:32:28.714Z,0.2
2019-04-16T01:32:42.641Z,0.3
2019-04-16T01:32:52.461Z,0.2
2019-04-16T01:33:04.298Z,0.2
2019-04-16T01:33:17.220Z,0.2
2019-04-16T01:33:29.132Z,0.3
2019-04-16T01:33:43.371Z,0.3
2019-04-16T01:33:52.963Z,0.3
2019-04-16T01:34:04.926Z,0.2
2019-04-16T01:34:18.002Z,0.2
2019-04-16T01:34:29.487Z,0.2
2019-04-16T01:34:41.323Z,0.2
2019-04-16T01:34:53.378Z,0.4
2019-04-16T01:35:05.208Z,0.5
2019-04-16T01:35:18.984Z,0.6
2019-04-16T01:35:28.964Z,0.5
2019-04-16T01:35:40.794Z,0.1
2019-04-16T01:35:53.659Z,0.1
2019-04-16T01:36:05.543Z,0.1
2019-04-16T01:36:17.374Z,0.1
2019-04-16T01:36:29.288Z,0.2
2019-04-16T01:36:41.210Z,0.3
2019-04-16T01:36:54.176Z,0.3
2019-04-16T01:37:04.879Z,0.3
2019-04-16T01:37:16.743Z,0.2
2019-04-16T01:37:29.556Z,0.2
2019-04-16T01:37:41.425Z,0.3
2019-04-16T01:37:56.475Z,0.4
2019-04-16T01:38:05.149Z,0.3
2019-04-16T01:38:16.994Z,0.4
2019-04-16T01:38:29.823Z,0.2
2019-04-16T01:38:41.653Z,0.1
2019-04-16T01:39:07.403Z,0.1
2019-04-16T01:39:15.519Z,0.2
2019-04-16T01:39:19.144Z,0.2
2019-04-16T01:39:31.056Z,0.2
2019-04-16T01:39:47.333Z,0.2
2019-04-16T01:39:54.800Z,0.3
2019-04-16T01:40:06.673Z,0.4
2019-04-16T01:40:19.270Z,0.3
2019-04-16T01:40:30.406Z,0.3
2019-04-16T01:40:42.236Z,0.2
2019-04-16T01:40:55.112Z,0.2
2019-04-16T01:41:06.939Z,0.2
2019-04-16T01:41:21.614Z,0.1
2019-04-16T01:41:30.603Z,0.1
2019-04-16T01:41:42.443Z,0.2
2019-04-16T01:41:55.382Z,0.2
2019-04-16T01:42:07.242Z,0.2
2019-04-16T01:42:23.087Z,0.2
2019-04-16T01:42:30.981Z,0.2
2019-04-16T01:42:42.811Z,0.1
2019-04-16T01:42:55.278Z,0.2
2019-04-16T01:43:06.662Z,0.2
2019-04-16T01:43:18.556Z,0.2
2019-04-16T01:43:31.485Z,0.2
2019-04-16T01:43:43.404Z,0.2
2019-04-16T01:43:57.079Z,0.3
2019-04-16T01:44:07.064Z,0.4
2019-04-16T01:44:18.970Z,0.3
2019-04-16T01:44:31.788Z,0.1
2019-04-16T01:44:43.701Z,0.1
2019-04-16T01:44:59.315Z,0.2
2019-04-16T01:45:07.388Z,0.2
2019-04-16T01:45:19.215Z,0.1
2019-04-16T01:45:32.030Z,0.2
2019-04-16T01:45:43.885Z,0.3
2019-04-16T01:46:00.524Z,0.2
2019-04-16T01:46:07.546Z,0.3
2019-04-16T01:46:19.433Z,0.3
2019-04-16T01:46:32.783Z,0.2
2019-04-16T01:46:43.095Z,0.2
2019-04-16T01:46:55.029Z,0.2
2019-04-16T01:47:07.861Z,0.2
2019-04-16T01:47:19.731Z,0.5
2019-04-16T01:47:35.710Z,0.5
2019-04-16T01:47:43.449Z,0.5
2019-04-16T01:47:55.273Z,0.2
2019-04-16T01:48:08.301Z,0.2
2019-04-16T01:48:20.156Z,0.2
2019-04-16T01:48:32.005Z,0.2
2019-04-16T01:48:44.853Z,0.1
2019-04-16T01:48:56.784Z,0.2
2019-04-16T01:49:10.211Z,0.3
2019-04-16T01:49:20.450Z,0.2
2019-04-16T01:49:32.345Z,0.2
2019-04-16T01:49:45.181Z,0.2
2019-04-16T01:49:57.073Z,0.2
2019-04-16T01:50:12.705Z,0.2
2019-04-16T01:50:20.834Z,0.2
2019-04-16T01:50:32.667Z,0.2
2019-04-16T01:50:45.541Z,0.3
2019-04-16T01:50:57.454Z,0.2
2019-04-16T01:51:09.321Z,0.2
2019-04-16T01:51:21.130Z,0.1
2019-04-16T01:51:32.948Z,0.2
2019-04-16T01:51:47.389Z,0.2
2019-04-16T01:51:56.728Z,0.1
2019-04-16T01:52:08.552Z,0.2
2019-04-16T01:52:21.454Z,0.2
2019-04-16T01:52:33.295Z,0.1
2019-04-16T01:52:49.313Z,0.2
2019-04-16T01:52:56.997Z,0.1
2019-04-16T01:53:09.835Z,0.3
2019-04-16T01:53:22.720Z,0.3
2019-04-16T01:53:34.569Z,0.2
2019-04-16T01:53:46.468Z,0.2
2019-04-16T01:53:58.346Z,0.2
2019-04-16T01:54:10.249Z,0.2
2019-04-16T01:54:22.785Z,0.2
2019-04-16T01:54:33.941Z,0.2
2019-04-16T01:54:45.825Z,0.3
2019-04-16T01:54:58.710Z,0.3
2019-04-16T01:55:10.599Z,0.3
2019-04-16T01:55:25.476Z,0.1
2019-04-16T01:55:34.346Z,0.1
2019-04-16T01:55:47.276Z,0.1
2019-04-16T01:56:00.121Z,0.1
2019-04-16T01:56:11.964Z,0.2
2019-04-16T01:56:27.665Z,0.3
2019-04-16T01:56:35.624Z,0.3
2019-04-16T01:56:47.537Z,0.2
2019-04-16T01:57:00.474Z,0.2
2019-04-16T01:57:11.181Z,0.2
2019-04-16T01:57:23.135Z,0.2
2019-04-16T01:57:36.073Z,0.2
2019-04-16T01:57:47.973Z,0.2
2019-04-16T01:58:02.670Z,0.2
2019-04-16T01:58:11.687Z,0.1
2019-04-16T01:58:23.585Z,0.1
2019-04-16T01:58:36.428Z,0.1
2019-04-16T01:58:48.285Z,0.2
2019-04-16T01:59:04.497Z,0.2
2019-04-16T01:59:12.063Z,0.2
2019-04-16T01:59:23.893Z,0.2
2019-04-16T01:59:36.451Z,0.1
2019-04-16T01:59:47.675Z,0.2
2019-04-16T01:59:59.510Z,0.2
2019-04-16T02:00:12.344Z,0.5
2019-04-16T02:00:24.187Z,0.4
2019-04-16T02:00:36.426Z,0.1
2019-04-16T02:00:48.023Z,0.1
2019-04-16T02:00:59.889Z,0.1
2019-04-16T02:01:12.721Z,0.1
2019-04-16T02:01:24.563Z,0.1
2019-04-16T02:01:36.492Z,0.1
2019-04-16T02:01:48.382Z,0.1
2019-04-16T02:02:00.245Z,0.1
2019-04-16T02:02:14.497Z,0.1
2019-04-16T02:02:23.951Z,0.2
2019-04-16T02:02:35.897Z,0.2
2019-04-16T02:02:48.717Z,0.2
2019-04-16T02:03:00.694Z,0.2
2019-04-16T02:03:12.523Z,0.2
2019-04-16T02:03:24.342Z,0.3
2019-04-16T02:03:36.189Z,0.2
2019-04-16T02:03:48.833Z,0.3
2019-04-16T02:03:59.883Z,0.3
2019-04-16T02:04:11.717Z,0.3
2019-04-16T02:04:24.623Z,0.2
2019-04-16T02:04:36.607Z,0.1
2019-04-16T02:04:51.848Z,0.2
2019-04-16T02:05:00.417Z,0.3
2019-04-16T02:05:12.255Z,0.3
2019-04-16T02:05:25.191Z,0.4
2019-04-16T02:05:37.063Z,0.3
2019-04-16T02:05:48.941Z,0.2
2019-04-16T02:06:01.182Z,0.2
2019-04-16T02:06:12.731Z,0.3
2019-04-16T02:06:25.895Z,0.3
2019-04-16T02:06:36.532Z,2.4
2019-04-16T02:06:48.355Z,2.2
2019-04-16T02:07:01.256Z,0.3
2019-04-16T02:07:13.091Z,0.3
2019-04-16T02:07:27.611Z,0.3
2019-04-16T02:07:36.874Z,0.2
2019-04-16T02:07:48.715Z,0.1
2019-04-16T02:08:01.581Z,0.1
2019-04-16T02:08:13.499Z,0.2
2019-04-16T02:08:25.330Z,0.2
2019-04-16T02:08:37.162Z,0.3
2019-04-16T02:08:49.076Z,0.2
2019-04-16T02:09:02.731Z,0.2
2019-04-16T02:09:22.231Z,0.3
2019-04-16T02:09:25.553Z,0.3
2019-04-16T02:09:38.476Z,0.4
2019-04-16T02:09:50.333Z,0.2
2019-04-16T02:10:05.889Z,0.1
2019-04-16T02:10:14.170Z,0.2
2019-04-16T02:10:26.048Z,0.2
2019-04-16T02:10:38.300Z,0.2
2019-04-16T02:10:49.692Z,0.2
2019-04-16T02:11:01.622Z,0.2
2019-04-16T02:11:14.505Z,0.2
2019-04-16T02:11:26.411Z,0.1
2019-04-16T02:11:38.779Z,0.1
2019-04-16T02:11:50.057Z,0.1
2019-04-16T02:12:01.991Z,0.1
2019-04-16T02:12:14.803Z,0.2
2019-04-16T02:12:26.749Z,0.2
2019-04-16T02:12:38.594Z,0.1
2019-04-16T02:12:50.417Z,0.2
2019-04-16T02:13:02.621Z,0.3
2019-04-16T02:13:14.942Z,0.4
2019-04-16T02:13:26.100Z,0.3
2019-04-16T02:13:38.046Z,0.1
2019-04-16T02:13:50.858Z,0.2
2019-04-16T02:14:02.713Z,0.3
2019-04-16T02:14:17.950Z,0.2
2019-04-16T02:14:27.536Z,0.2
2019-04-16T02:14:39.396Z,0.1
2019-04-16T02:14:52.232Z,0.1
2019-04-16T02:15:04.137Z,0.2
2019-04-16T02:15:15.963Z,0.3
2019-04-16T02:15:27.785Z,0.2
2019-04-16T02:15:39.694Z,0.2
2019-04-16T02:15:53.325Z,0.2
2019-04-16T02:16:03.363Z,0.2
2019-04-16T02:16:15.227Z,0.1
2019-04-16T02:16:28.076Z,0.1
2019-04-16T02:16:39.964Z,0.1
2019-04-16T02:16:55.653Z,0.2
2019-04-16T02:17:03.824Z,0.2
2019-04-16T02:17:15.585Z,0.1
2019-04-16T02:17:28.315Z,0.1
2019-04-16T02:17:40.244Z,0.1
2019-04-16T02:17:52.190Z,0.1
2019-04-16T02:18:04.994Z,0.2
2019-04-16T02:18:16.900Z,0.3
2019-04-16T02:18:29.638Z,0.3
2019-04-16T02:18:40.591Z,0.2
2019-04-16T02:18:52.532Z,0.2
2019-04-16T02:19:05.356Z,0.2
2019-04-16T02:19:17.382Z,0.2
2019-04-16T02:19:32.248Z,0.2
2019-04-16T02:19:41.042Z,0.1
2019-04-16T02:19:52.972Z,0.2
2019-04-16T02:20:07.048Z,0.2
2019-04-16T02:20:17.730Z,0.1
2019-04-16T02:20:29.648Z,0.2
2019-04-16T02:20:42.533Z,0.1
2019-04-16T02:20:54.392Z,0.3
2019-04-16T02:21:09.481Z,0.3
2019-04-16T02:21:18.142Z,0.3
2019-04-16T02:21:29.989Z,0.3
2019-04-16T02:21:42.847Z,0.4
2019-04-16T02:21:54.730Z,0.2
2019-04-16T02:22:06.565Z,0.2
2019-04-16T02:22:19.378Z,2
2019-04-16T02:22:31.197Z,2
2019-04-16T02:22:45.049Z,2
2019-04-16T02:22:54.938Z,3.2
2019-04-16T02:23:06.780Z,3.2
2019-04-16T02:23:19.583Z,3.1
2019-04-16T02:23:31.408Z,0.1
2019-04-16T02:23:45.267Z,0.3
2019-04-16T02:23:55.145Z,0.4
2019-04-16T02:24:07.269Z,0.4
2019-04-16T02:24:19.429Z,0.3
2019-04-16T02:24:30.744Z,0.2
2019-04-16T02:24:42.643Z,0.1
2019-04-16T02:24:54.461Z,0.1
2019-04-16T02:25:06.286Z,0.1
2019-04-16T02:25:20.058Z,0.1
2019-04-16T02:25:30.121Z,0.3
2019-04-16T02:25:41.962Z,0.4
2019-04-16T02:25:54.859Z,0.2
2019-04-16T02:26:06.714Z,0.2
2019-04-16T02:26:20.473Z,0.2
2019-04-16T02:26:30.567Z,0.2
2019-04-16T02:26:42.494Z,0.2
2019-04-16T02:26:54.915Z,0.2
2019-04-16T02:27:06.210Z,0.2
2019-04-16T02:27:18.060Z,0.1
2019-04-16T02:27:30.940Z,0.1
2019-04-16T02:27:42.906Z,0.1
2019-04-16T02:27:56.906Z,0.1
2019-04-16T02:28:06.565Z,0.1
2019-04-16T02:28:21.411Z,0.2
2019-04-16T02:28:31.329Z,0.3
2019-04-16T02:28:43.249Z,0.4
2019-04-16T02:28:56.409Z,0.2
2019-04-16T02:29:06.903Z,0.2
2019-04-16T02:29:18.835Z,0.2
2019-04-16T02:29:31.649Z,0.3
2019-04-16T02:29:43.551Z,1.2
2019-04-16T02:29:55.423Z,1.2
2019-04-16T02:30:08.274Z,1.2
2019-04-16T02:30:20.105Z,0.2
2019-04-16T02:30:37.188Z,0.2
2019-04-16T02:30:44.752Z,0.3
2019-04-16T02:30:56.590Z,0.4
2019-04-16T02:31:12.757Z,0.2
2019-04-16T02:31:21.455Z,0.2
2019-04-16T02:31:33.370Z,0.2
2019-04-16T02:31:47.825Z,0.2
2019-04-16T02:31:58.017Z,0.2
2019-04-16T02:32:09.982Z,0.3
2019-04-16T02:32:21.795Z,0.3
2019-04-16T02:32:33.791Z,0.3
2019-04-16T02:32:45.693Z,0.3
2019-04-16T02:32:57.527Z,1.2
2019-04-16T02:33:09.356Z,1.2
2019-04-16T02:33:21.284Z,1.2
2019-04-16T02:33:33.184Z,0.1
2019-04-16T02:33:45.006Z,0.1
2019-04-16T02:33:57.845Z,0.1
2019-04-16T02:34:10.877Z,0.2
2019-04-16T02:34:22.579Z,0.2
2019-04-16T02:34:34.458Z,0.2
2019-04-16T02:34:46.440Z,0.2
2019-04-16T02:34:58.310Z,0.1
2019-04-16T02:35:10.149Z,0.2
2019-04-16T02:35:21.979Z,0.2
2019-04-16T02:35:33.813Z,0.2
2019-04-16T02:35:45.651Z,0.2
2019-04-16T02:35:57.481Z,0.2
2019-04-16T02:36:09.449Z,0.2
2019-04-16T02:36:21.301Z,0.2
2019-04-16T02:36:33.255Z,0.1
2019-04-16T02:36:45.075Z,0.2
2019-04-16T02:37:00.245Z,0.1
2019-04-16T02:37:08.911Z,0.1
2019-04-16T02:37:20.762Z,0.1
2019-04-16T02:37:36.245Z,0.2
2019-04-16T02:37:44.506Z,0.2
2019-04-16T02:37:56.427Z,0.2
2019-04-16T02:38:12.160Z,0.2
2019-04-16T02:38:20.105Z,0.2
2019-04-16T02:38:32.035Z,0.2
2019-04-16T02:38:50.008Z,0.3
2019-04-16T02:38:56.727Z,0.3
2019-04-16T02:39:08.564Z,0.2
2019-04-16T02:39:25.484Z,0.2
2019-04-16T02:39:47.461Z,0.2
2019-04-16T02:39:48.912Z,0.1
2019-04-16T02:39:57.915Z,0.1
2019-04-16T02:40:16.537Z,0.1
2019-04-16T02:40:22.681Z,0.1
2019-04-16T02:40:34.657Z,0.2
2019-04-16T02:40:51.284Z,0.2
2019-04-16T02:40:58.403Z,0.2
2019-04-16T02:41:10.328Z,0.1
2019-04-16T02:41:23.197Z,0.1
2019-04-16T02:41:35.076Z,0.2
2019-04-16T02:41:46.966Z,0.4
2019-04-16T02:41:59.890Z,0.4
2019-04-16T02:42:11.805Z,0.2
2019-04-16T02:42:30.229Z,0.2
2019-04-16T02:42:36.599Z,0.2
2019-04-16T02:42:48.416Z,0.2
2019-04-16T02:43:04.529Z,0.3
2019-04-16T02:43:13.202Z,0.2
2019-04-16T02:43:25.104Z,0.2
2019-04-16T02:43:40.816Z,0.2
2019-04-16T02:43:48.826Z,0.3
2019-04-16T02:44:00.891Z,0.3
2019-04-16T02:44:15.859Z,0.2
2019-04-16T02:44:25.315Z,0.2
2019-04-16T02:44:37.224Z,0.2
2019-04-16T02:44:50.429Z,0.2
2019-04-16T02:45:02.190Z,0.2
2019-04-16T02:45:13.866Z,0.2
2019-04-16T02:45:26.854Z,0.2
2019-04-16T02:45:38.680Z,0.2